Time;durP1;ratioP1;P1;durP2;ratioP2;P2;SDS_P1;SDS_P2;PMS_P1;PMS_P2;Temp;Humidity;BMP_temperature;BMP_pressure;BME280_temperature;BME280_humidity;BME280_pressure;Samples;Min_cycle;Max_cycle;Signal;HPM_P1;HPM_P2
2023/03/13 00:01:25;;;;;;;10.77;3.83;;;6.90;99.90;;;;;;7809070;28;20186;-92
2023/03/13 00:05:12;;;;;;;8.17;3.73;;;6.90;99.90;;;;;;7809146;28;20198;-93
2023/03/13 00:08:59;;;;;;;11.67;3.80;;;6.90;99.90;;;;;;7809216;28;20557;-93
2023/03/13 00:12:45;;;;;;;10.57;3.23;;;7.00;99.90;;;;;;7808640;28;20203;-92
2023/03/13 00:16:30;;;;;;;11.60;3.70;;;6.90;99.90;;;;;;7808541;28;20213;-92
2023/03/13 00:20:16;;;;;;;11.03;3.83;;;7.00;99.90;;;;;;7807558;28;20290;-93
2023/03/13 00:24:03;;;;;;;11.27;4.00;;;7.00;99.90;;;;;;7808563;28;20241;-92
2023/03/13 00:27:48;;;;;;;15.67;4.23;;;7.00;99.90;;;;;;7807290;28;20182;-92
2023/03/13 00:31:34;;;;;;;16.00;4.33;;;7.00;99.90;;;;;;7808067;28;20222;-92
2023/03/13 00:35:19;;;;;;;17.47;4.33;;;6.90;99.90;;;;;;7816489;28;20199;-93
2023/03/13 00:39:06;;;;;;;14.47;4.50;;;6.90;99.90;;;;;;7801461;28;20183;-92
2023/03/13 00:42:51;;;;;;;15.50;4.00;;;7.00;99.90;;;;;;7807160;28;20204;-92
2023/03/13 00:46:37;;;;;;;14.73;4.00;;;7.10;99.90;;;;;;7806967;28;20194;-92
2023/03/13 00:50:23;;;;;;;11.60;3.90;;;7.10;99.90;;;;;;7796681;28;20194;-93
2023/03/13 00:54:08;;;;;;;10.67;3.60;;;7.10;99.90;;;;;;7807165;28;20711;-92
2023/03/13 00:57:54;;;;;;;15.20;4.37;;;7.20;99.90;;;;;;7799889;28;20183;-93
2023/03/13 01:01:40;;;;;;;17.83;3.53;;;7.20;99.90;;;;;;7782337;28;20206;-92
2023/03/13 01:05:26;;;;;;;16.63;4.37;;;7.10;99.90;;;;;;7779299;28;20199;-92
2023/03/13 01:09:13;;;;;;;18.33;4.53;;;7.10;99.90;;;;;;7775696;28;20193;-92
2023/03/13 01:12:59;;;;;;;16.23;3.43;;;7.10;99.90;;;;;;7775617;28;20207;-92
2023/03/13 01:16:45;;;;;;;14.30;3.90;;;7.10;99.90;;;;;;7775555;28;20211;-92
2023/03/13 01:20:31;;;;;;;20.47;3.63;;;7.10;99.90;;;;;;7780030;28;20194;-92
2023/03/13 01:24:19;;;;;;;13.73;3.20;;;7.20;99.90;;;;;;7806049;28;20294;-92
2023/03/13 01:28:04;;;;;;;20.17;3.67;;;7.20;99.90;;;;;;7808368;28;20182;-92
2023/03/13 01:31:50;;;;;;;16.73;3.53;;;7.20;99.90;;;;;;7824029;28;20171;-92
2023/03/13 01:35:35;;;;;;;17.67;3.43;;;7.20;99.90;;;;;;7782213;28;20217;-92
2023/03/13 01:39:21;;;;;;;15.37;3.93;;;7.10;99.90;;;;;;7797388;28;20265;-92
2023/03/13 01:43:23;;;;;;;11.73;3.67;;;7.20;99.90;;;;;;7811742;28;20195;-92
2023/03/13 01:47:09;;;;;;;19.17;3.60;;;7.20;99.90;;;;;;7811744;28;20179;-92
2023/03/13 01:50:55;;;;;;;15.20;3.27;;;7.20;99.90;;;;;;7799887;28;20194;-92
2023/03/13 01:55:17;;;;;;;16.07;3.23;;;7.20;99.90;;;;;;7810687;28;20640;-92
2023/03/13 01:59:06;;;;;;;17.00;3.30;;;7.20;99.90;;;;;;7815173;28;20179;-92
2023/03/13 02:02:56;;;;;;;13.83;3.90;;;7.20;99.90;;;;;;7796805;28;20674;-92
2023/03/13 02:06:44;;;;;;;15.20;3.53;;;7.20;99.90;;;;;;7784142;28;20582;-92
2023/03/13 02:10:33;;;;;;;20.30;3.87;;;7.30;99.90;;;;;;7780629;28;20206;-92
2023/03/13 02:14:22;;;;;;;19.67;3.20;;;7.30;99.90;;;;;;7780019;28;20225;-92
2023/03/13 02:18:07;;;;;;;14.90;3.23;;;7.20;99.90;;;;;;7779913;28;20270;-92
2023/03/13 02:22:30;;;;;;;17.77;3.80;;;7.20;99.90;;;;;;7779401;28;20195;-92
2023/03/13 02:26:17;;;;;;;17.37;3.83;;;7.20;99.90;;;;;;7782776;28;20194;-92
2023/03/13 02:30:04;;;;;;;14.43;3.13;;;7.10;99.90;;;;;;7794154;28;20175;-93
2023/03/13 02:33:49;;;;;;;13.07;3.60;;;7.10;99.90;;;;;;7800590;28;20202;-93
2023/03/13 02:37:36;;;;;;;22.57;3.57;;;7.10;99.90;;;;;;7800924;28;20178;-92
2023/03/13 02:41:23;;;;;;;14.03;4.03;;;7.20;99.90;;;;;;7784305;28;20179;-92
2023/03/13 02:45:09;;;;;;;18.23;3.80;;;7.10;99.90;;;;;;7797457;28;20775;-93
2023/03/13 02:48:56;;;;;;;11.93;2.77;;;7.20;99.90;;;;;;7814627;28;20313;-93
2023/03/13 02:52:55;;;;;;;14.43;3.33;;;7.10;99.90;;;;;;7803679;28;20701;-93
2023/03/13 02:56:43;;;;;;;14.80;3.07;;;7.10;99.90;;;;;;7783408;28;20215;-92
2023/03/13 03:00:29;;;;;;;12.03;2.87;;;7.10;99.90;;;;;;7782926;28;20207;-92
2023/03/13 03:04:14;;;;;;;16.87;2.50;;;7.10;99.90;;;;;;7799622;28;20209;-92
2023/03/13 03:08:00;;;;;;;17.43;3.03;;;7.20;99.90;;;;;;7814477;28;20194;-92
2023/03/13 03:11:46;;;;;;;19.63;2.93;;;7.20;99.90;;;;;;7813783;28;20252;-92
2023/03/13 03:15:32;;;;;;;16.67;3.70;;;7.20;99.90;;;;;;7811311;28;20203;-92
2023/03/13 03:19:18;;;;;;;17.80;3.17;;;7.20;99.90;;;;;;7814049;28;20182;-92
2023/03/13 03:23:03;;;;;;;15.83;3.50;;;7.20;99.90;;;;;;7814002;28;20237;-93
2023/03/13 03:26:49;;;;;;;12.10;3.23;;;7.20;99.90;;;;;;7825590;28;20169;-92
2023/03/13 03:30:34;;;;;;;21.43;3.30;;;7.30;99.90;;;;;;7837512;28;20191;-93
2023/03/13 03:34:20;;;;;;;16.03;2.63;;;7.30;99.90;;;;;;7814796;28;20288;-92
2023/03/13 03:38:06;;;;;;;12.93;3.33;;;7.30;99.90;;;;;;7814392;28;20249;-92
2023/03/13 03:41:52;;;;;;;15.33;3.20;;;7.40;99.90;;;;;;7806892;28;20187;-93
2023/03/13 03:45:37;;;;;;;12.23;2.63;;;7.40;99.90;;;;;;7816704;28;20216;-93
2023/03/13 03:49:23;;;;;;;19.23;2.80;;;7.40;99.90;;;;;;7812242;28;20228;-93
2023/03/13 03:53:11;;;;;;;19.57;3.20;;;7.30;99.90;;;;;;7808709;28;20225;-92
2023/03/13 03:56:56;;;;;;;14.87;2.80;;;7.30;99.90;;;;;;7811962;28;20206;-93
2023/03/13 04:00:43;;;;;;;16.33;2.90;;;7.40;99.90;;;;;;7813275;28;20233;-92
2023/03/13 04:04:29;;;;;;;15.67;2.77;;;7.40;99.90;;;;;;7813181;28;20481;-92
2023/03/13 04:08:15;;;;;;;17.67;2.67;;;7.30;99.90;;;;;;7812863;28;20174;-93
2023/03/13 04:12:01;;;;;;;12.63;2.33;;;7.30;99.90;;;;;;7812972;28;20332;-93
2023/03/13 04:15:47;;;;;;;21.13;2.90;;;7.40;99.90;;;;;;7796198;28;20198;-93
2023/03/13 04:19:33;;;;;;;11.03;2.63;;;7.40;99.90;;;;;;7798819;28;20644;-93
2023/03/13 04:23:18;;;;;;;10.20;2.23;;;7.40;99.90;;;;;;7822529;28;20230;-92
2023/03/13 04:27:05;;;;;;;17.80;2.80;;;7.40;99.90;;;;;;7803166;28;20257;-93
2023/03/13 04:30:51;;;;;;;12.23;2.90;;;7.40;99.90;;;;;;7782053;28;20218;-93
2023/03/13 04:34:37;;;;;;;14.23;3.10;;;7.40;99.90;;;;;;7808083;28;20217;-92
2023/03/13 04:38:23;;;;;;;13.50;2.97;;;7.40;99.90;;;;;;7813059;28;20194;-93
2023/03/13 04:42:10;;;;;;;12.40;2.53;;;7.40;99.90;;;;;;7811376;28;20181;-93
2023/03/13 04:45:55;;;;;;;18.07;2.97;;;7.40;99.90;;;;;;7792928;28;20210;-93
2023/03/13 04:49:41;;;;;;;15.97;3.17;;;7.40;99.90;;;;;;7793198;28;20430;-94
2023/03/13 04:53:27;;;;;;;15.30;3.23;;;7.40;99.90;;;;;;7797794;28;20195;-93
2023/03/13 04:57:12;;;;;;;13.77;3.07;;;7.30;99.90;;;;;;7797380;28;20234;-92
2023/03/13 05:00:58;;;;;;;16.87;3.53;;;7.40;99.90;;;;;;7780846;28;20179;-93
2023/03/13 05:04:43;;;;;;;15.07;2.90;;;7.30;99.90;;;;;;7781846;28;20201;-92
2023/03/13 05:08:29;;;;;;;15.57;2.57;;;7.30;99.90;;;;;;7814080;28;20240;-89
2023/03/13 05:12:15;;;;;;;13.53;3.50;;;7.20;99.90;;;;;;7815753;28;20202;-93
2023/03/13 05:16:00;;;;;;;16.30;3.80;;;7.30;99.90;;;;;;7806542;28;20219;-93
2023/03/13 05:19:46;;;;;;;18.40;5.57;;;7.10;99.90;;;;;;7804318;28;20201;-94
2023/03/13 05:23:32;;;;;;;17.57;6.40;;;7.00;99.90;;;;;;7834184;28;20210;-93
2023/03/13 05:27:18;;;;;;;16.83;7.07;;;6.90;99.90;;;;;;7849608;28;20183;-93
2023/03/13 05:31:05;;;;;;;19.47;7.33;;;6.90;99.90;;;;;;7823797;28;20179;-93
2023/03/13 05:34:51;;;;;;;22.57;8.37;;;6.80;99.90;;;;;;7818403;28;20216;-93
2023/03/13 05:38:36;;;;;;;19.33;8.03;;;6.80;99.90;;;;;;7801578;28;20195;-84
2023/03/13 05:42:22;;;;;;;24.50;9.13;;;6.70;99.90;;;;;;7797551;28;20194;-85
2023/03/13 05:46:09;;;;;;;21.53;8.90;;;6.70;99.90;;;;;;7792219;28;20183;-93
2023/03/13 05:49:54;;;;;;;20.77;9.53;;;6.70;99.90;;;;;;7788700;28;20183;-93
2023/03/13 05:53:40;;;;;;;20.00;9.60;;;6.70;99.90;;;;;;7781860;28;20215;-85
2023/03/13 05:57:26;;;;;;;21.70;10.70;;;6.70;99.90;;;;;;7779238;28;20740;-85
2023/03/13 06:01:12;;;;;;;30.83;10.00;;;6.70;99.90;;;;;;7800164;28;20946;-85
2023/03/13 06:04:58;;;;;;;25.10;11.53;;;6.70;99.90;;;;;;7810785;28;20627;-86
2023/03/13 06:08:44;;;;;;;29.33;11.30;;;6.70;99.90;;;;;;7809904;28;20290;-85
2023/03/13 06:12:30;;;;;;;23.00;10.80;;;6.60;99.90;;;;;;7805448;28;20657;-85
2023/03/13 06:16:16;;;;;;;28.40;12.57;;;6.70;99.90;;;;;;7807032;28;20206;-85
2023/03/13 06:20:04;;;;;;;26.03;11.47;;;6.70;99.90;;;;;;7802499;28;20191;-85
2023/03/13 06:23:49;;;;;;;24.67;11.57;;;6.70;99.90;;;;;;7811470;28;20213;-84
2023/03/13 06:27:35;;;;;;;24.73;11.63;;;6.70;99.90;;;;;;7826793;28;20206;-85
2023/03/13 06:31:22;;;;;;;26.88;14.48;;;6.70;99.90;;;;;;7799037;28;20429;-84
2023/03/13 06:35:08;;;;;;;26.23;12.60;;;6.80;99.90;;;;;;7811775;28;20210;-84
2023/03/13 06:38:53;;;;;;;25.37;11.60;;;6.70;99.90;;;;;;7801393;28;20229;-84
2023/03/13 06:42:39;;;;;;;22.43;11.37;;;6.80;99.90;;;;;;7809638;28;20721;-86
2023/03/13 06:46:25;;;;;;;26.65;13.73;;;6.80;99.90;;;;;;7801901;28;20427;-84
2023/03/13 06:50:11;;;;;;;25.83;11.27;;;7.00;99.90;;;;;;7803423;28;20205;-85
2023/03/13 06:53:56;;;;;;;24.20;11.87;;;7.00;99.90;;;;;;7806251;28;20207;-86
2023/03/13 06:57:42;;;;;;;20.97;9.87;;;7.00;99.90;;;;;;7797397;28;20196;-87
2023/03/13 07:01:28;;;;;;;25.57;10.20;;;6.90;99.90;;;;;;7811498;28;20183;-84
2023/03/13 07:05:13;;;;;;;20.53;10.00;;;7.00;99.90;;;;;;7804918;28;20220;-84
2023/03/13 07:08:59;;;;;;;22.80;10.50;;;7.00;99.90;;;;;;7812455;28;20651;-87
2023/03/13 07:12:45;;;;;;;19.37;10.73;;;7.00;99.90;;;;;;7813195;28;20232;-92
2023/03/13 07:16:30;;;;;;;17.97;9.70;;;7.10;99.90;;;;;;7814244;28;20217;-92
2023/03/13 07:20:16;;;;;;;18.53;10.07;;;7.10;99.90;;;;;;7814320;28;20197;-92
2023/03/13 07:24:02;;;;;;;18.60;10.33;;;7.10;99.90;;;;;;7849507;28;20190;-92
2023/03/13 07:27:51;;;;;;;17.53;9.77;;;7.10;99.90;;;;;;7815068;28;20266;-92
2023/03/13 07:31:38;;;;;;;17.40;9.70;;;7.20;99.90;;;;;;7815285;28;20548;-91
2023/03/13 07:35:23;;;;;;;23.00;9.90;;;7.20;99.90;;;;;;7784334;28;20274;-92
2023/03/13 07:39:09;;;;;;;15.33;8.87;;;7.20;99.90;;;;;;7801986;28;20183;-92
2023/03/13 07:42:55;;;;;;;18.63;9.50;;;7.30;99.90;;;;;;7801915;28;20206;-93
2023/03/13 07:46:40;;;;;;;17.53;8.97;;;7.40;99.90;;;;;;7799023;28;20191;-93
2023/03/13 07:50:26;;;;;;;17.07;8.90;;;7.40;99.90;;;;;;7799671;28;20642;-94
2023/03/13 07:54:12;;;;;;;19.50;9.50;;;7.40;99.90;;;;;;7804719;28;20207;-92
2023/03/13 07:58:02;;;;;;;14.90;8.33;;;7.40;99.90;;;;;;7811963;28;20207;-92
2023/03/13 08:01:47;;;;;;;18.40;8.17;;;7.40;99.90;;;;;;7810701;28;20179;-92
2023/03/13 08:05:33;;;;;;;15.60;8.10;;;7.40;99.90;;;;;;7798486;28;20214;-93
2023/03/13 08:09:19;;;;;;;16.13;8.37;;;7.40;99.90;;;;;;7783763;28;20282;-93
2023/03/13 08:13:05;;;;;;;19.83;7.67;;;7.40;99.90;;;;;;7810828;28;20206;-93
2023/03/13 08:16:50;;;;;;;18.73;7.43;;;7.30;99.90;;;;;;7814592;28;20293;-92
2023/03/13 08:20:36;;;;;;;17.37;7.50;;;7.30;99.90;;;;;;7814254;28;20202;-93
2023/03/13 08:24:22;;;;;;;16.10;7.37;;;7.30;99.90;;;;;;7812115;28;20206;-93
2023/03/13 08:28:09;;;;;;;16.70;6.30;;;7.30;99.90;;;;;;7812767;28;20246;-92
2023/03/13 08:31:55;;;;;;;14.80;6.40;;;7.30;99.90;;;;;;7808035;28;20187;-93
2023/03/13 08:35:41;;;;;;;15.60;6.03;;;7.30;99.90;;;;;;7811669;28;20214;-92
2023/03/13 08:39:26;;;;;;;14.20;6.50;;;7.30;99.90;;;;;;7813705;28;20198;-93
2023/03/13 08:43:12;;;;;;;15.07;6.20;;;7.30;99.90;;;;;;7797272;28;20203;-92
2023/03/13 08:46:58;;;;;;;14.83;5.63;;;7.40;99.90;;;;;;7781484;28;20234;-92
2023/03/13 08:50:44;;;;;;;13.13;6.60;;;7.40;99.90;;;;;;7777901;28;20183;-92
2023/03/13 08:54:30;;;;;;;18.03;6.43;;;7.40;99.90;;;;;;7791344;28;20211;-93
2023/03/13 08:58:16;;;;;;;12.57;5.30;;;7.60;99.90;;;;;;7790163;28;20186;-94
2023/03/13 09:02:02;;;;;;;11.43;5.47;;;7.50;99.90;;;;;;7787692;28;20180;-93
2023/03/13 09:05:47;;;;;;;9.13;4.57;;;7.70;99.90;;;;;;7798036;28;20187;-91
2023/03/13 09:09:33;;;;;;;12.17;5.03;;;7.80;99.90;;;;;;7785739;28;20176;-93
2023/03/13 09:13:19;;;;;;;9.50;4.00;;;7.90;99.90;;;;;;7785268;28;20199;-93
2023/03/13 09:17:05;;;;;;;11.80;4.97;;;8.00;99.90;;;;;;7798740;28;20292;-91
2023/03/13 09:20:51;;;;;;;10.43;4.17;;;8.00;99.90;;;;;;7816456;28;20251;-93
2023/03/13 09:24:37;;;;;;;6.37;3.83;;;8.10;99.90;;;;;;7819444;28;20202;-94
2023/03/13 09:28:25;;;;;;;10.10;3.80;;;8.20;99.90;;;;;;7817540;28;20246;-91
2023/03/13 09:32:10;;;;;;;12.63;4.40;;;8.20;99.90;;;;;;7801567;28;20256;-85
2023/03/13 09:35:56;;;;;;;6.47;4.20;;;8.10;99.90;;;;;;7788194;28;20212;-85
2023/03/13 09:39:45;;;;;;;9.70;6.00;;;8.10;99.90;;;;;;7782123;28;20176;-92
2023/03/13 09:43:50;;;;;;;8.70;4.67;;;8.10;99.90;;;;;;7783343;28;20254;-93
2023/03/13 09:47:42;;;;;;;31.60;13.63;;;8.10;99.90;;;;;;7784538;28;20184;-93
2023/03/13 09:51:35;;;;;;;11.30;6.40;;;8.10;99.90;;;;;;7783326;28;20206;-92
2023/03/13 09:55:31;;;;;;;15.10;7.23;;;8.10;99.90;;;;;;7786182;28;20207;-92
2023/03/13 09:59:19;;;;;;;10.60;6.77;;;8.10;99.90;;;;;;7793236;28;20171;-94
2023/03/13 10:03:22;;;;;;;12.47;7.50;;;8.10;99.90;;;;;;7817469;28;20738;-93
2023/03/13 10:07:10;;;;;;;12.90;8.50;;;8.10;99.90;;;;;;7818744;28;20179;-93
2023/03/13 10:11:14;;;;;;;16.27;10.37;;;8.00;99.90;;;;;;7817172;28;20782;-93
2023/03/13 10:15:12;;;;;;;17.43;10.67;;;8.00;99.90;;;;;;7796643;28;20203;-91
2023/03/13 10:19:25;;;;;;;14.83;9.53;;;8.00;99.90;;;;;;7795548;28;20695;-91
2023/03/13 10:23:32;;;;;;;15.43;9.93;;;8.10;99.90;;;;;;7806190;28;20214;-89
2023/03/13 10:27:18;;;;;;;14.23;8.90;;;8.10;99.90;;;;;;7826503;28;20671;-90
2023/03/13 10:31:19;;;;;;;17.80;9.50;;;8.10;99.90;;;;;;7796789;28;20187;-90
2023/03/13 10:35:06;;;;;;;15.27;9.40;;;8.20;99.90;;;;;;7800668;28;20217;-90
2023/03/13 10:38:53;;;;;;;12.03;8.37;;;8.20;99.90;;;;;;7813949;28;20175;-91
2023/03/13 10:42:44;;;;;;;14.23;8.77;;;8.30;99.90;;;;;;7811587;28;20175;-91
2023/03/13 10:46:38;;;;;;;17.10;7.90;;;8.40;99.90;;;;;;7784885;28;20680;-90
2023/03/13 10:50:26;;;;;;;12.00;7.17;;;8.50;99.90;;;;;;7806229;28;20187;-90
2023/03/13 10:54:18;;;;;;;14.67;7.00;;;8.60;99.90;;;;;;7797438;28;20293;-91
2023/03/13 10:58:05;;;;;;;10.80;6.50;;;8.70;99.90;;;;;;7784586;28;20171;-91
2023/03/13 11:01:52;;;;;;;9.47;7.00;;;8.90;99.90;;;;;;7812460;28;20170;-91
2023/03/13 11:05:42;;;;;;;15.10;9.60;;;9.00;99.90;;;;;;7810419;28;20209;-92
2023/03/13 11:09:33;;;;;;;11.30;8.97;;;9.00;99.90;;;;;;7804171;28;20178;-92
2023/03/13 11:13:41;;;;;;;13.67;8.90;;;9.00;99.90;;;;;;7812673;28;20703;-91
2023/03/13 11:17:39;;;;;;;12.53;8.70;;;9.00;99.90;;;;;;7847109;28;20191;-90
2023/03/13 11:21:47;;;;;;;12.80;8.13;;;9.10;99.90;;;;;;7781220;28;20214;-91
2023/03/13 11:26:08;;;;;;;11.00;6.73;;;9.10;99.90;;;;;;7784314;28;20676;-91
2023/03/13 11:30:06;;;;;;;13.90;7.40;;;9.20;99.90;;;;;;7749829;28;20278;-90
2023/03/13 11:34:05;;;;;;;10.27;6.33;;;9.30;99.90;;;;;;7805607;28;20202;-90
2023/03/13 11:37:56;;;;;;;8.80;5.80;;;9.30;99.90;;;;;;7806641;28;20225;-90
2023/03/13 11:41:48;;;;;;;8.57;4.80;;;9.30;99.90;;;;;;7789034;28;20179;-90
2023/03/13 11:45:37;;;;;;;4.70;3.73;;;9.50;99.90;;;;;;7804265;28;20282;-91
2023/03/13 11:49:44;;;;;;;3.40;2.83;;;9.50;99.90;;;;;;7803997;28;20657;-92
2023/03/13 11:53:57;;;;;;;5.40;3.30;;;9.60;99.90;;;;;;7796528;28;20202;-91
2023/03/13 11:57:53;;;;;;;4.40;2.33;;;9.80;99.90;;;;;;7810276;28;20206;-89
2023/03/13 12:01:45;;;;;;;2.67;1.90;;;10.00;99.90;;;;;;7808657;28;20186;-91
2023/03/13 12:05:54;;;;;;;3.93;1.83;;;10.10;99.90;;;;;;7812703;28;20198;-93
2023/03/13 12:09:48;;;;;;;2.50;1.70;;;10.20;99.90;;;;;;7813408;28;20188;-93
2023/03/13 12:13:39;;;;;;;3.23;1.20;;;10.50;99.90;;;;;;7811028;28;20251;-92
2023/03/13 12:17:49;;;;;;;3.47;1.43;;;10.60;99.90;;;;;;7801899;28;20711;-91
2023/03/13 12:21:41;;;;;;;1.50;1.33;;;10.70;99.90;;;;;;7780230;28;20202;-92
2023/03/13 12:25:33;;;;;;;3.57;1.80;;;10.90;99.90;;;;;;7794689;28;20214;-91
2023/03/13 12:29:38;;;;;;;2.37;1.23;;;11.00;99.90;;;;;;7797236;28;20187;-90
2023/03/13 12:33:54;;;;;;;1.43;1.33;;;11.00;99.90;;;;;;7784731;28;20218;-90
2023/03/13 12:37:53;;;;;;;3.20;1.13;;;11.10;99.90;;;;;;7746878;28;20314;-90
2023/03/13 12:41:46;;;;;;;4.20;1.23;;;11.10;99.90;;;;;;7725593;28;20200;-91
2023/03/13 12:45:34;;;;;;;2.20;1.10;;;11.20;99.90;;;;;;7698087;28;20201;-90
2023/03/13 12:49:34;;;;;;;1.63;1.20;;;11.30;99.90;;;;;;7744251;28;20203;-91
2023/03/13 12:53:40;;;;;;;1.47;1.20;;;11.30;99.90;;;;;;7770084;28;20208;-91
2023/03/13 12:57:46;;;;;;;2.83;1.20;;;11.30;99.90;;;;;;7730078;28;20240;-91
2023/03/13 13:01:39;;;;;;;2.47;1.53;;;11.40;99.90;;;;;;7746897;28;20187;-90
2023/03/13 13:05:25;;;;;;;1.80;1.13;;;11.50;99.90;;;;;;7744502;28;20213;-91
2023/03/13 13:09:24;;;;;;;1.40;1.07;;;11.60;99.90;;;;;;7733334;28;20191;-90
2023/03/13 13:13:13;;;;;;;2.20;1.13;;;11.60;99.90;;;;;;7823414;28;20215;-93
2023/03/13 13:17:13;;;;;;;6.90;1.40;;;11.60;99.90;;;;;;7812860;28;20213;-92
2023/03/13 13:21:02;;;;;;;2.10;1.10;;;11.60;99.90;;;;;;7812589;28;20186;-92
2023/03/13 13:24:50;;;;;;;1.30;1.00;;;11.70;99.90;;;;;;7799680;28;20195;-91
2023/03/13 13:28:36;;;;;;;3.00;1.40;;;11.80;99.90;;;;;;7809379;28;20179;-91
2023/03/13 13:32:29;;;;;;;1.33;1.10;;;11.90;99.90;;;;;;7814324;28;20186;-91
2023/03/13 13:36:20;;;;;;;4.07;1.00;;;12.00;99.90;;;;;;7798785;28;20234;-91
2023/03/13 13:40:29;;;;;;;1.77;0.90;;;12.10;99.90;;;;;;7817058;28;20186;-91
2023/03/13 13:44:24;;;;;;;1.27;1.03;;;12.10;99.90;;;;;;7832338;28;20205;-89
2023/03/13 13:48:26;;;;;;;2.57;1.37;;;12.20;99.90;;;;;;7813140;28;20178;-92
2023/03/13 13:52:12;;;;;;;1.23;1.00;;;12.40;99.90;;;;;;7821249;28;20190;-92
2023/03/13 13:55:58;;;;;;;1.73;1.10;;;12.50;99.90;;;;;;7816716;28;20222;-92
2023/03/13 13:59:48;;;;;;;1.33;1.20;;;12.50;99.90;;;;;;7820406;28;20183;-93
2023/03/13 14:03:40;;;;;;;0.97;0.90;;;12.60;99.90;;;;;;7819180;28;20262;-92
2023/03/13 14:07:47;;;;;;;1.53;1.10;;;12.70;99.90;;;;;;7817197;28;20198;-92
2023/03/13 14:11:38;;;;;;;1.53;1.10;;;12.70;99.90;;;;;;7817188;28;20185;-92
2023/03/13 14:15:29;;;;;;;2.67;1.27;;;12.70;99.90;;;;;;7801288;28;20207;-89
2023/03/13 14:19:37;;;;;;;1.10;1.00;;;12.70;99.90;;;;;;7789688;28;20166;-92
2023/03/13 14:23:31;;;;;;;2.77;1.23;;;12.70;99.90;;;;;;7808417;28;20214;-91
2023/03/13 14:27:18;;;;;;;1.80;1.23;;;12.80;99.90;;;;;;7807252;28;20229;-90
2023/03/13 14:31:04;;;;;;;6.70;1.23;;;12.80;99.90;;;;;;7782511;28;20172;-91
2023/03/13 14:34:50;;;;;;;2.93;1.10;;;12.80;99.90;;;;;;7783728;28;20208;-91
2023/03/13 14:38:37;;;;;;;1.13;1.03;;;12.80;99.90;;;;;;7796487;28;20183;-91
2023/03/13 14:42:22;;;;;;;2.30;1.17;;;12.90;99.90;;;;;;7785564;28;20190;-91
2023/03/13 14:46:34;;;;;;;1.73;1.27;;;12.90;99.90;;;;;;7791437;28;20258;-91
2023/03/13 14:50:23;;;;;;;1.23;1.10;;;13.00;99.90;;;;;;7803470;28;20179;-92
2023/03/13 14:54:32;;;;;;;5.23;1.27;;;13.00;99.90;;;;;;7807145;28;20209;-91
2023/03/13 14:58:30;;;;;;;1.30;1.20;;;12.90;99.90;;;;;;7824047;28;20182;-90
2023/03/13 15:02:42;;;;;;;2.43;1.17;;;13.00;99.90;;;;;;7810231;28;20171;-92
2023/03/13 15:06:35;;;;;;;1.83;1.40;;;13.00;99.90;;;;;;7809036;28;20186;-90
2023/03/13 15:10:35;;;;;;;3.13;1.20;;;13.00;99.90;;;;;;7795286;28;20625;-92
2023/03/13 15:14:40;;;;;;;2.27;1.13;;;13.10;99.90;;;;;;7798352;28;20264;-92
2023/03/13 15:18:31;;;;;;;7.63;1.30;;;13.20;99.90;;;;;;7802013;28;20191;-91
2023/03/13 15:22:18;;;;;;;2.77;1.17;;;13.20;99.90;;;;;;7785537;28;20191;-91
2023/03/13 15:26:05;;;;;;;2.77;1.33;;;13.20;99.90;;;;;;7785477;28;20259;-91
2023/03/13 15:29:51;;;;;;;2.50;1.30;;;13.20;99.90;;;;;;7788645;28;20642;-91
2023/03/13 15:33:38;;;;;;;2.40;1.30;;;13.20;99.90;;;;;;7794389;28;20642;-90
2023/03/13 15:37:25;;;;;;;2.40;1.90;;;13.20;99.90;;;;;;7779600;28;20215;-90
2023/03/13 15:41:10;;;;;;;1.77;1.53;;;13.20;99.90;;;;;;7805641;28;20207;-90
2023/03/13 15:44:56;;;;;;;6.40;1.80;;;13.20;99.90;;;;;;7809233;28;20213;-88
2023/03/13 15:48:42;;;;;;;2.70;1.67;;;13.10;99.90;;;;;;7808256;28;20199;-89
2023/03/13 15:52:34;;;;;;;2.30;1.67;;;13.20;99.90;;;;;;7802285;28;20183;-91
2023/03/13 15:56:22;;;;;;;4.27;1.83;;;13.20;99.90;;;;;;7783922;28;20681;-90
2023/03/13 16:00:24;;;;;;;2.77;2.20;;;13.20;99.90;;;;;;7784869;28;20167;-92
2023/03/13 16:04:10;;;;;;;4.90;2.77;;;13.10;99.90;;;;;;7806551;28;20209;-91
2023/03/13 16:07:57;;;;;;;2.77;2.00;;;13.00;99.90;;;;;;7806838;28;20175;-85
2023/03/13 16:11:44;;;;;;;2.50;1.90;;;13.00;99.90;;;;;;7812636;28;20183;-92
2023/03/13 16:15:30;;;;;;;2.77;1.77;;;13.00;99.90;;;;;;7830091;28;20211;-92
2023/03/13 16:19:18;;;;;;;3.57;1.37;;;13.00;99.90;;;;;;7822665;28;20232;-92
2023/03/13 16:23:04;;;;;;;1.73;1.50;;;13.00;99.90;;;;;;7822550;28;20217;-92
2023/03/13 16:26:50;;;;;;;1.50;1.40;;;13.00;99.90;;;;;;7811327;28;20881;-91
2023/03/13 16:30:40;;;;;;;3.83;1.80;;;13.10;99.90;;;;;;7814446;28;20190;-93
2023/03/13 16:34:26;;;;;;;4.17;1.77;;;13.00;99.90;;;;;;7802367;28;20207;-91
2023/03/13 16:38:11;;;;;;;3.00;1.40;;;13.00;99.90;;;;;;7811093;28;20174;-90
2023/03/13 16:41:58;;;;;;;3.80;1.67;;;12.90;99.90;;;;;;7827855;28;20179;-90
2023/03/13 16:45:46;;;;;;;2.93;1.80;;;12.90;99.90;;;;;;7812103;28;20203;-92
2023/03/13 16:49:32;;;;;;;3.17;1.73;;;12.80;99.90;;;;;;7781559;28;20179;-93
2023/03/13 16:53:18;;;;;;;3.67;1.97;;;12.60;99.90;;;;;;7776545;28;20202;-92
2023/03/13 16:57:09;;;;;;;2.57;2.00;;;12.50;99.90;;;;;;7777281;28;20211;-93
2023/03/13 17:00:54;;;;;;;3.77;2.03;;;12.40;99.90;;;;;;7798747;28;20187;-89
2023/03/13 17:04:40;;;;;;;3.27;2.10;;;12.20;99.90;;;;;;7827574;28;20217;-91
2023/03/13 17:08:25;;;;;;;2.83;1.87;;;12.10;99.90;;;;;;7814904;28;20187;-85
2023/03/13 17:12:11;;;;;;;3.43;2.13;;;12.00;99.90;;;;;;7806671;28;20188;-85
2023/03/13 17:15:59;;;;;;;6.40;2.30;;;12.00;99.90;;;;;;7811222;28;20210;-85
2023/03/13 17:19:45;;;;;;;4.00;2.43;;;11.90;99.90;;;;;;7803168;28;20194;-85
2023/03/13 17:23:32;;;;;;;5.13;2.50;;;11.80;99.90;;;;;;7798367;28;20203;-87
2023/03/13 17:27:19;;;;;;;2.60;2.40;;;11.80;99.90;;;;;;7800099;28;20708;-85
2023/03/13 17:31:04;;;;;;;6.97;2.30;;;11.70;99.90;;;;;;7782184;28;20171;-86
2023/03/13 17:35:18;;;;;;;5.23;2.40;;;11.70;99.90;;;;;;7780324;28;20215;-92
2023/03/13 17:39:10;;;;;;;4.67;2.50;;;11.70;99.90;;;;;;7803947;28;20187;-91
2023/03/13 17:43:09;;;;;;;6.93;2.23;;;11.70;99.90;;;;;;7794641;28;20238;-92
2023/03/13 17:46:55;;;;;;;2.70;2.00;;;11.80;99.90;;;;;;7810208;28;20193;-92
2023/03/13 17:50:53;;;;;;;3.90;2.23;;;11.80;99.90;;;;;;7811721;28;20221;-92
2023/03/13 17:54:40;;;;;;;2.67;1.80;;;11.80;99.90;;;;;;7809211;28;20206;-92
2023/03/13 17:58:36;;;;;;;3.33;1.70;;;11.80;99.90;;;;;;7806810;28;20195;-91
2023/03/13 18:02:21;;;;;;;4.50;2.30;;;11.80;99.90;;;;;;7805165;28;20186;-92
2023/03/13 18:06:24;;;;;;;3.57;2.00;;;11.70;99.90;;;;;;7811062;28;20214;-91
2023/03/13 18:10:20;;;;;;;2.97;2.37;;;11.80;99.90;;;;;;7802744;28;20306;-91
2023/03/13 18:14:05;;;;;;;5.10;2.37;;;11.70;99.90;;;;;;7795027;28;20248;-92
2023/03/13 18:17:52;;;;;;;3.80;2.40;;;11.70;99.90;;;;;;7811059;28;20211;-91
2023/03/13 18:21:37;;;;;;;4.33;2.10;;;11.70;99.90;;;;;;7810570;28;20230;-91
2023/03/13 18:25:30;;;;;;;5.10;2.30;;;11.70;99.90;;;;;;7796225;28;20716;-91
2023/03/13 18:29:28;;;;;;;5.10;2.20;;;11.70;99.90;;;;;;7802569;28;20186;-91
2023/03/13 18:33:13;;;;;;;3.53;2.23;;;11.70;99.90;;;;;;7810217;28;20199;-90
2023/03/13 18:37:02;;;;;;;2.60;2.30;;;11.70;99.90;;;;;;7810671;28;20214;-91
2023/03/13 18:40:48;;;;;;;4.17;2.37;;;11.70;99.90;;;;;;7797161;28;20756;-91
2023/03/13 18:44:50;;;;;;;3.90;2.13;;;11.70;99.90;;;;;;7779957;28;20548;-91
2023/03/13 18:48:36;;;;;;;4.97;2.53;;;11.70;99.90;;;;;;7785761;28;20163;-91
2023/03/13 18:52:21;;;;;;;3.03;2.17;;;11.70;99.90;;;;;;7821800;28;20396;-90
2023/03/13 18:56:25;;;;;;;6.13;2.50;;;11.70;99.90;;;;;;7840139;28;20315;-91
2023/03/13 19:00:20;;;;;;;4.00;2.43;;;11.80;99.90;;;;;;7796416;28;20198;-92
2023/03/13 19:04:05;;;;;;;4.27;2.40;;;11.70;99.90;;;;;;7782810;28;20198;-91
2023/03/13 19:07:54;;;;;;;4.10;2.43;;;11.70;99.90;;;;;;7778849;28;20187;-91
2023/03/13 19:11:40;;;;;;;5.33;2.33;;;11.70;99.90;;;;;;7778514;28;20596;-92
2023/03/13 19:15:36;;;;;;;6.30;2.77;;;11.70;99.90;;;;;;7795024;28;20211;-91
2023/03/13 19:19:24;;;;;;;5.37;2.10;;;11.70;99.90;;;;;;7794131;28;20191;-88
2023/03/13 19:23:09;;;;;;;6.20;2.20;;;11.80;99.90;;;;;;7784851;28;20229;-91
2023/03/13 19:26:57;;;;;;;5.43;2.30;;;11.70;99.90;;;;;;7790176;28;20270;-91
2023/03/13 19:30:52;;;;;;;4.50;2.60;;;11.80;99.90;;;;;;7778360;28;20176;-91
2023/03/13 19:34:37;;;;;;;4.70;2.67;;;11.80;99.90;;;;;;7796446;28;20206;-91
2023/03/13 19:38:30;;;;;;;4.70;2.37;;;11.80;99.90;;;;;;7825610;28;20178;-92
2023/03/13 19:42:16;;;;;;;4.17;2.53;;;11.90;99.90;;;;;;7826337;28;20175;-91
2023/03/13 19:46:20;;;;;;;6.33;2.93;;;12.00;99.90;;;;;;7813474;28;20221;-91
2023/03/13 19:50:29;;;;;;;8.17;3.23;;;12.10;99.90;;;;;;7814562;28;20185;-91
2023/03/13 19:54:47;;;;;;;5.13;3.10;;;12.10;99.90;;;;;;7808460;28;20202;-91